PWSweather.com
Personal Weather Stations
Station Observations
SD92115WX
El Cerrito Stoneybluff, San Diego, CA 92115

El Cerrito StoneybluffSan Diego, CA 92115

Lat: 32.754096, Lon: -117.066705

Elevation: 420

Station Type: Davis Vantage Vue

http://stoneybluff.com

High Low Average
Temperature 62.2°F16.8°C 55.0°F12.8°C 57.6°F14.2°C
Dew Point 53.2°F11.8°C 50.4°F10.2°C 51.6°F10.9°C
Winds 12.5 mph 20.1 kmh 0.2 mph 0.3 kmh 5.0 mph SSW8.0 kmh SSW
Wind Gusts 22.4 mph36.0 kmh 2.0 mph3.2 kmh 10.0 mph16.1 kmh
Humidity 89% 70% 81%
Pressure 29.98 in1015.2 mb 29.90 in1012.5 mb -
Precipitation 0.00 in0.0 mm - -
Hour Temp Dew Point Humidity Winds Wind Gusts Pressure Precip Precip Rate Daily Precip Total
12:02 AM 56.5°F13.6°C 51.4°F10.8°C 83% 3.4 mph SSW5.5 kmh SSW 7.4 mph11.9 kmh 29.93 in1013.5 mb 0.00 in0.0 mm 0.00 in0.0 mm 0.00 in0.0 mm
12:07 AM 56.5°F13.6°C 51.4°F10.8°C 83% 3.4 mph SW5.5 kmh SW 6.3 mph10.1 kmh 29.93 in1013.5 mb 0.00 in0.0 mm 0.00 in0.0 mm 0.00 in0.0 mm
12:12 AM 56.3°F13.5°C 51.4°F10.8°C 84% 3.4 mph SW5.5 kmh SW 5.4 mph8.7 kmh 29.94 in1013.9 mb 0.00 in0.0 mm 0.00 in0.0 mm 0.00 in0.0 mm
12:17 AM 56.1°F13.4°C 51.4°F10.8°C 84% 2.2 mph SW3.5 kmh SW 5.4 mph8.7 kmh 29.94 in1013.9 mb 0.00 in0.0 mm 0.00 in0.0 mm 0.00 in0.0 mm
12:22 AM 56.1°F13.4°C 51.4°F10.8°C 84% 2.9 mph WSW4.7 kmh WSW 6.3 mph10.1 kmh 29.94 in1013.9 mb 0.00 in0.0 mm 0.00 in0.0 mm 0.00 in0.0 mm
12:27 AM 56.1°F13.4°C 51.4°F10.8°C 84% 2.7 mph SSW4.3 kmh SSW 5.4 mph8.7 kmh 29.94 in1013.9 mb 0.00 in0.0 mm 0.00 in0.0 mm 0.00 in0.0 mm
12:32 AM 56.1°F13.4°C 51.4°F10.8°C 84% 1.3 mph SSW2.1 kmh SSW 4.3 mph6.9 kmh 29.94 in1013.9 mb 0.00 in0.0 mm 0.00 in0.0 mm 0.00 in0.0 mm
12:37 AM 55.9°F13.3°C 51.3°F10.7°C 84% 2.0 mph SSW3.2 kmh SSW 5.4 mph8.7 kmh 29.94 in1013.9 mb 0.00 in0.0 mm 0.00 in0.0 mm 0.00 in0.0 mm
12:42 AM 55.9°F13.3°C 51.3°F10.7°C 84% 1.6 mph SSW2.6 kmh SSW 5.4 mph8.7 kmh 29.94 in1013.9 mb 0.00 in0.0 mm 0.00 in0.0 mm 0.00 in0.0 mm
12:47 AM 55.9°F13.3°C 51.3°F10.7°C 84% 2.2 mph WSW3.5 kmh WSW 4.3 mph6.9 kmh 29.93 in1013.5 mb 0.00 in0.0 mm 0.00 in0.0 mm 0.00 in0.0 mm
12:52 AM 55.9°F13.3°C 51.3°F10.7°C 84% 1.8 mph SSW2.9 kmh SSW 5.4 mph8.7 kmh 29.94 in1013.9 mb 0.00 in0.0 mm 0.00 in0.0 mm 0.00 in0.0 mm
12:57 AM 55.9°F13.3°C 51.3°F10.7°C 84% 0.7 mph SW1.1 kmh SW 3.1 mph5.0 kmh 29.93 in1013.5 mb 0.00 in0.0 mm 0.00 in0.0 mm 0.00 in0.0 mm
01:02 AM 55.9°F13.3°C 51.3°F10.7°C 84% 1.8 mph SW2.9 kmh SW 6.3 mph10.1 kmh 29.94 in1013.9 mb 0.00 in0.0 mm 0.00 in0.0 mm 0.00 in0.0 mm
01:07 AM 55.9°F13.3°C 50.9°F10.5°C 83% 2.5 mph SW4.0 kmh SW 6.3 mph10.1 kmh 29.93 in1013.5 mb 0.00 in0.0 mm 0.00 in0.0 mm 0.00 in0.0 mm
01:12 AM 55.9°F13.3°C 50.9°F10.5°C 83% 1.6 mph SW2.6 kmh SW 4.3 mph6.9 kmh 29.93 in1013.5 mb 0.00 in0.0 mm 0.00 in0.0 mm 0.00 in0.0 mm
01:17 AM 55.9°F13.3°C 50.5°F10.3°C 82% 3.8 mph SW6.1 kmh SW 6.3 mph10.1 kmh 29.93 in1013.5 mb 0.00 in0.0 mm 0.00 in0.0 mm 0.00 in0.0 mm
01:22 AM 55.9°F13.3°C 50.5°F10.3°C 82% 0.2 mph S0.3 kmh S 6.3 mph10.1 kmh 29.93 in1013.5 mb 0.00 in0.0 mm 0.00 in0.0 mm 0.00 in0.0 mm
01:27 AM 55.8°F13.2°C 50.4°F10.2°C 82% 1.8 mph S2.9 kmh S 5.4 mph8.7 kmh 29.93 in1013.5 mb 0.00 in0.0 mm 0.00 in0.0 mm 0.00 in0.0 mm
01:32 AM 55.8°F13.2°C 50.4°F10.2°C 82% 2.0 mph SSW3.2 kmh SSW 4.3 mph6.9 kmh 29.93 in1013.5 mb 0.00 in0.0 mm 0.00 in0.0 mm 0.00 in0.0 mm
01:37 AM 55.8°F13.2°C 50.4°F10.2°C 82% 1.6 mph SE2.6 kmh SE 4.3 mph6.9 kmh 29.93 in1013.5 mb 0.00 in0.0 mm 0.00 in0.0 mm 0.00 in0.0 mm
01:42 AM 55.8°F13.2°C 50.4°F10.2°C 82% 2.2 mph SW3.5 kmh SW 3.1 mph5.0 kmh 29.93 in1013.5 mb 0.00 in0.0 mm 0.00 in0.0 mm 0.00 in0.0 mm
01:47 AM 55.8°F13.2°C 50.4°F10.2°C 82% 1.8 mph SSE2.9 kmh SSE 4.3 mph6.9 kmh 29.93 in1013.5 mb 0.00 in0.0 mm 0.00 in0.0 mm 0.00 in0.0 mm
01:52 AM 55.8°F13.2°C 50.4°F10.2°C 82% 1.8 mph WSW2.9 kmh WSW 5.4 mph8.7 kmh 29.93 in1013.5 mb 0.00 in0.0 mm 0.00 in0.0 mm 0.00 in0.0 mm
01:57 AM 55.9°F13.3°C 50.9°F10.5°C 83% 2.7 mph SW4.3 kmh SW 6.3 mph10.1 kmh 29.93 in1013.5 mb 0.00 in0.0 mm 0.00 in0.0 mm 0.00 in0.0 mm
02:02 AM 55.9°F13.3°C 50.9°F10.5°C 83% 2.0 mph SW3.2 kmh SW 4.3 mph6.9 kmh 29.93 in1013.5 mb 0.00 in0.0 mm 0.00 in0.0 mm 0.00 in0.0 mm
02:07 AM 55.9°F13.3°C 50.9°F10.5°C 83% 3.1 mph SSE5.0 kmh SSE 6.3 mph10.1 kmh 29.93 in1013.5 mb 0.00 in0.0 mm 0.00 in0.0 mm 0.00 in0.0 mm
02:12 AM 55.9°F13.3°C 50.9°F10.5°C 83% 2.2 mph SW3.5 kmh SW 6.3 mph10.1 kmh 29.93 in1013.5 mb 0.00 in0.0 mm 0.00 in0.0 mm 0.00 in0.0 mm
02:17 AM 55.9°F13.3°C 50.9°F10.5°C 83% 1.8 mph S2.9 kmh S 6.3 mph10.1 kmh 29.93 in1013.5 mb 0.00 in0.0 mm 0.00 in0.0 mm 0.00 in0.0 mm
02:22 AM 55.9°F13.3°C 50.9°F10.5°C 83% 2.9 mph SE4.7 kmh SE 5.4 mph8.7 kmh 29.93 in1013.5 mb 0.00 in0.0 mm 0.00 in0.0 mm 0.00 in0.0 mm
02:27 AM 55.9°F13.3°C 50.9°F10.5°C 83% 1.3 mph SSE2.1 kmh SSE 5.4 mph8.7 kmh 29.94 in1013.9 mb 0.00 in0.0 mm 0.00 in0.0 mm 0.00 in0.0 mm
02:32 AM 55.9°F13.3°C 50.9°F10.5°C 83% 0.7 mph SSE1.1 kmh SSE 6.3 mph10.1 kmh 29.94 in1013.9 mb 0.00 in0.0 mm 0.00 in0.0 mm 0.00 in0.0 mm
02:37 AM 55.9°F13.3°C 50.9°F10.5°C 83% 3.6 mph SE5.8 kmh SE 6.3 mph10.1 kmh 29.94 in1013.9 mb 0.00 in0.0 mm 0.00 in0.0 mm 0.00 in0.0 mm
02:42 AM 55.9°F13.3°C 51.3°F10.7°C 84% 2.0 mph SSW3.2 kmh SSW 7.4 mph11.9 kmh 29.94 in1013.9 mb 0.00 in0.0 mm 0.00 in0.0 mm 0.00 in0.0 mm
02:47 AM 55.9°F13.3°C 51.3°F10.7°C 84% 2.7 mph S4.3 kmh S 5.4 mph8.7 kmh 29.94 in1013.9 mb 0.00 in0.0 mm 0.00 in0.0 mm 0.00 in0.0 mm
02:52 AM 55.9°F13.3°C 51.3°F10.7°C 84% 2.2 mph SSE3.5 kmh SSE 5.4 mph8.7 kmh 29.94 in1013.9 mb 0.00 in0.0 mm 0.00 in0.0 mm 0.00 in0.0 mm
02:57 AM 55.9°F13.3°C 50.9°F10.5°C 83% 2.5 mph S4.0 kmh S 4.3 mph6.9 kmh 29.93 in1013.5 mb 0.00 in0.0 mm 0.00 in0.0 mm 0.00 in0.0 mm
03:02 AM 56.1°F13.4°C 51.1°F10.6°C 83% 3.8 mph SW6.1 kmh SW 8.5 mph13.7 kmh 29.93 in1013.5 mb 0.00 in0.0 mm 0.00 in0.0 mm 0.00 in0.0 mm
03:07 AM 56.1°F13.4°C 51.1°F10.6°C 83% 2.0 mph S3.2 kmh S 6.3 mph10.1 kmh 29.93 in1013.5 mb 0.00 in0.0 mm 0.00 in0.0 mm 0.00 in0.0 mm
03:12 AM 56.1°F13.4°C 51.1°F10.6°C 83% 3.8 mph SW6.1 kmh SW 6.3 mph10.1 kmh 29.93 in1013.5 mb 0.00 in0.0 mm 0.00 in0.0 mm 0.00 in0.0 mm
03:17 AM 56.1°F13.4°C 51.1°F10.6°C 83% 2.7 mph S4.3 kmh S 6.3 mph10.1 kmh 29.94 in1013.9 mb 0.00 in0.0 mm 0.00 in0.0 mm 0.00 in0.0 mm
03:22 AM 56.1°F13.4°C 51.1°F10.6°C 83% 1.8 mph SSW2.9 kmh SSW 5.4 mph8.7 kmh 29.94 in1013.9 mb 0.00 in0.0 mm 0.00 in0.0 mm 0.00 in0.0 mm
03:27 AM 56.1°F13.4°C 51.1°F10.6°C 83% 2.7 mph S4.3 kmh S 6.3 mph10.1 kmh 29.94 in1013.9 mb 0.00 in0.0 mm 0.00 in0.0 mm 0.00 in0.0 mm
03:32 AM 56.1°F13.4°C 51.1°F10.6°C 83% 3.6 mph SE5.8 kmh SE 7.4 mph11.9 kmh 29.94 in1013.9 mb 0.00 in0.0 mm 0.00 in0.0 mm 0.00 in0.0 mm
03:37 AM 56.3°F13.5°C 51.3°F10.7°C 83% 2.9 mph S4.7 kmh S 7.4 mph11.9 kmh 29.94 in1013.9 mb 0.00 in0.0 mm 0.00 in0.0 mm 0.00 in0.0 mm
03:42 AM 56.1°F13.4°C 51.1°F10.6°C 83% 5.6 mph SW9.0 kmh SW 10.5 mph16.9 kmh 29.94 in1013.9 mb 0.00 in0.0 mm 0.00 in0.0 mm 0.00 in0.0 mm
03:47 AM 56.1°F13.4°C 51.1°F10.6°C 83% 3.6 mph SW5.8 kmh SW 8.5 mph13.7 kmh 29.94 in1013.9 mb 0.00 in0.0 mm 0.00 in0.0 mm 0.00 in0.0 mm
03:52 AM 56.1°F13.4°C 50.7°F10.4°C 82% 2.7 mph SW4.3 kmh SW 8.5 mph13.7 kmh 29.94 in1013.9 mb 0.00 in0.0 mm 0.00 in0.0 mm 0.00 in0.0 mm
03:57 AM 55.9°F13.3°C 50.9°F10.5°C 83% 0.9 mph SW1.4 kmh SW 6.3 mph10.1 kmh 29.94 in1013.9 mb 0.00 in0.0 mm 0.00 in0.0 mm 0.00 in0.0 mm
04:02 AM 55.9°F13.3°C 50.9°F10.5°C 83% 1.8 mph SSE2.9 kmh SSE 6.3 mph10.1 kmh 29.94 in1013.9 mb 0.00 in0.0 mm 0.00 in0.0 mm 0.00 in0.0 mm
04:07 AM 55.8°F13.2°C 50.7°F10.4°C 83% 1.8 mph SW2.9 kmh SW 4.3 mph6.9 kmh 29.94 in1013.9 mb 0.00 in0.0 mm 0.00 in0.0 mm 0.00 in0.0 mm
04:12 AM 55.8°F13.2°C 50.7°F10.4°C 83% 3.4 mph SE5.5 kmh SE 6.3 mph10.1 kmh 29.94 in1013.9 mb 0.00 in0.0 mm 0.00 in0.0 mm 0.00 in0.0 mm
04:17 AM 55.8°F13.2°C 50.4°F10.2°C 82% 1.6 mph SSW2.6 kmh SSW 6.3 mph10.1 kmh 29.94 in1013.9 mb 0.00 in0.0 mm 0.00 in0.0 mm 0.00 in0.0 mm
04:22 AM 55.9°F13.3°C 50.5°F10.3°C 82% 2.5 mph SE4.0 kmh SE 6.3 mph10.1 kmh 29.94 in1013.9 mb 0.00 in0.0 mm 0.00 in0.0 mm 0.00 in0.0 mm
04:27 AM 55.9°F13.3°C 50.5°F10.3°C 82% 4.3 mph S6.9 kmh S 6.3 mph10.1 kmh 29.93 in1013.5 mb 0.00 in0.0 mm 0.00 in0.0 mm 0.00 in0.0 mm
04:32 AM 55.9°F13.3°C 50.5°F10.3°C 82% 2.0 mph SE3.2 kmh SE 6.3 mph10.1 kmh 29.93 in1013.5 mb 0.00 in0.0 mm 0.00 in0.0 mm 0.00 in0.0 mm
04:37 AM 55.9°F13.3°C 50.5°F10.3°C 82% 5.1 mph ESE8.2 kmh ESE 8.5 mph13.7 kmh 29.94 in1013.9 mb 0.00 in0.0 mm 0.00 in0.0 mm 0.00 in0.0 mm
04:42 AM 55.9°F13.3°C 50.5°F10.3°C 82% 3.4 mph SE5.5 kmh SE 7.4 mph11.9 kmh 29.93 in1013.5 mb 0.00 in0.0 mm 0.00 in0.0 mm 0.00 in0.0 mm
04:47 AM 55.9°F13.3°C 50.9°F10.5°C 83% 4.5 mph SE7.2 kmh SE 8.5 mph13.7 kmh 29.93 in1013.5 mb 0.00 in0.0 mm 0.00 in0.0 mm 0.00 in0.0 mm
04:52 AM 55.9°F13.3°C 50.9°F10.5°C 83% 4.0 mph SW6.4 kmh SW 8.5 mph13.7 kmh 29.94 in1013.9 mb 0.00 in0.0 mm 0.00 in0.0 mm 0.00 in0.0 mm
04:57 AM 55.9°F13.3°C 50.9°F10.5°C 83% 3.4 mph S5.5 kmh S 5.4 mph8.7 kmh 29.94 in1013.9 mb 0.00 in0.0 mm 0.00 in0.0 mm 0.00 in0.0 mm
05:02 AM 55.9°F13.3°C 50.9°F10.5°C 83% 2.5 mph W4.0 kmh W 7.4 mph11.9 kmh 29.93 in1013.5 mb 0.00 in0.0 mm 0.00 in0.0 mm 0.00 in0.0 mm
05:07 AM 55.8°F13.2°C 50.7°F10.4°C 83% 5.1 mph SW8.2 kmh SW 10.5 mph16.9 kmh 29.94 in1013.9 mb 0.00 in0.0 mm 0.00 in0.0 mm 0.00 in0.0 mm
05:12 AM 55.8°F13.2°C 51.1°F10.6°C 84% 2.2 mph E3.5 kmh E 7.4 mph11.9 kmh 29.94 in1013.9 mb 0.00 in0.0 mm 0.00 in0.0 mm 0.00 in0.0 mm
05:17 AM 55.6°F13.1°C 50.9°F10.5°C 84% 1.8 mph SE2.9 kmh SE 6.3 mph10.1 kmh 29.94 in1013.9 mb 0.00 in0.0 mm 0.00 in0.0 mm 0.00 in0.0 mm
05:22 AM 55.6°F13.1°C 50.5°F10.3°C 83% 2.9 mph S4.7 kmh S 7.4 mph11.9 kmh 29.94 in1013.9 mb 0.00 in0.0 mm 0.00 in0.0 mm 0.00 in0.0 mm
05:27 AM 55.6°F13.1°C 50.5°F10.3°C 83% 3.8 mph SW6.1 kmh SW 10.5 mph16.9 kmh 29.95 in1014.2 mb 0.00 in0.0 mm 0.00 in0.0 mm 0.00 in0.0 mm
05:32 AM 55.8°F13.2°C 50.7°F10.4°C 83% 3.8 mph SE6.1 kmh SE 9.6 mph15.4 kmh 29.95 in1014.2 mb 0.00 in0.0 mm 0.00 in0.0 mm 0.00 in0.0 mm
05:37 AM 55.8°F13.2°C 51.1°F10.6°C 84% 4.7 mph S7.6 kmh S 8.5 mph13.7 kmh 29.94 in1013.9 mb 0.00 in0.0 mm 0.00 in0.0 mm 0.00 in0.0 mm
05:42 AM 55.6°F13.1°C 50.9°F10.5°C 84% 5.1 mph SSE8.2 kmh SSE 9.6 mph15.4 kmh 29.94 in1013.9 mb 0.00 in0.0 mm 0.00 in0.0 mm 0.00 in0.0 mm
05:47 AM 55.2°F12.9°C 50.7°F10.4°C 85% 4.5 mph SSE7.2 kmh SSE 8.5 mph13.7 kmh 29.94 in1013.9 mb 0.00 in0.0 mm 0.00 in0.0 mm 0.00 in0.0 mm
05:52 AM 55.2°F12.9°C 51.1°F10.6°C 86% 3.6 mph S5.8 kmh S 8.5 mph13.7 kmh 29.94 in1013.9 mb 0.00 in0.0 mm 0.00 in0.0 mm 0.00 in0.0 mm
05:57 AM 55.2°F12.9°C 51.1°F10.6°C 86% 2.7 mph SSE4.3 kmh SSE 6.3 mph10.1 kmh 29.95 in1014.2 mb 0.00 in0.0 mm 0.00 in0.0 mm 0.00 in0.0 mm
06:02 AM 55.2°F12.9°C 51.1°F10.6°C 86% 3.4 mph SE5.5 kmh SE 7.4 mph11.9 kmh 29.95 in1014.2 mb 0.00 in0.0 mm 0.00 in0.0 mm 0.00 in0.0 mm
06:07 AM 55.2°F12.9°C 51.1°F10.6°C 86% 0.7 mph SE1.1 kmh SE 4.3 mph6.9 kmh 29.95 in1014.2 mb 0.00 in0.0 mm 0.00 in0.0 mm 0.00 in0.0 mm
06:12 AM 55.4°F13.0°C 51.3°F10.7°C 86% 2.7 mph S4.3 kmh S 4.3 mph6.9 kmh 29.95 in1014.2 mb 0.00 in0.0 mm 0.00 in0.0 mm 0.00 in0.0 mm
06:17 AM 55.6°F13.1°C 51.4°F10.8°C 86% 2.0 mph SSW3.2 kmh SSW 5.4 mph8.7 kmh 29.95 in1014.2 mb 0.00 in0.0 mm 0.00 in0.0 mm 0.00 in0.0 mm
06:22 AM 55.6°F13.1°C 51.4°F10.8°C 86% 2.5 mph S4.0 kmh S 5.4 mph8.7 kmh 29.95 in1014.2 mb 0.00 in0.0 mm 0.00 in0.0 mm 0.00 in0.0 mm
06:27 AM 55.2°F12.9°C 51.4°F10.8°C 87% 4.7 mph S7.6 kmh S 7.4 mph11.9 kmh 29.95 in1014.2 mb 0.00 in0.0 mm 0.00 in0.0 mm 0.00 in0.0 mm
06:32 AM 55.2°F12.9°C 51.4°F10.8°C 87% 3.8 mph SE6.1 kmh SE 8.5 mph13.7 kmh 29.96 in1014.6 mb 0.00 in0.0 mm 0.00 in0.0 mm 0.00 in0.0 mm
06:37 AM 55.0°F12.8°C 51.6°F10.9°C 88% 3.1 mph S5.0 kmh S 6.3 mph10.1 kmh 29.95 in1014.2 mb 0.00 in0.0 mm 0.00 in0.0 mm 0.00 in0.0 mm
06:42 AM 55.0°F12.8°C 51.8°F11.0°C 89% 2.2 mph SSW3.5 kmh SSW 8.5 mph13.7 kmh 29.96 in1014.6 mb 0.00 in0.0 mm 0.00 in0.0 mm 0.00 in0.0 mm
06:47 AM 55.0°F12.8°C 51.8°F11.0°C 89% 1.8 mph SE2.9 kmh SE 8.5 mph13.7 kmh 29.96 in1014.6 mb 0.00 in0.0 mm 0.00 in0.0 mm 0.00 in0.0 mm
06:52 AM 55.0°F12.8°C 51.8°F11.0°C 89% 2.7 mph SSE4.3 kmh SSE 7.4 mph11.9 kmh 29.96 in1014.6 mb 0.00 in0.0 mm 0.00 in0.0 mm 0.00 in0.0 mm
06:57 AM 55.0°F12.8°C 51.8°F11.0°C 89% 3.4 mph SSE5.5 kmh SSE 7.4 mph11.9 kmh 29.96 in1014.6 mb 0.00 in0.0 mm 0.00 in0.0 mm 0.00 in0.0 mm
07:02 AM 55.2°F12.9°C 52.0°F11.1°C 89% 2.2 mph SSE3.5 kmh SSE 5.4 mph8.7 kmh 29.95 in1014.2 mb 0.00 in0.0 mm 0.00 in0.0 mm 0.00 in0.0 mm
07:07 AM 55.4°F13.0°C 52.2°F11.2°C 89% 3.1 mph S5.0 kmh S 7.4 mph11.9 kmh 29.95 in1014.2 mb 0.00 in0.0 mm 0.00 in0.0 mm 0.00 in0.0 mm
07:12 AM 55.8°F13.2°C 52.5°F11.4°C 89% 2.0 mph S3.2 kmh S 8.5 mph13.7 kmh 29.96 in1014.6 mb 0.00 in0.0 mm 0.00 in0.0 mm 0.00 in0.0 mm
07:17 AM 55.9°F13.3°C 52.5°F11.4°C 88% 3.8 mph SW6.1 kmh SW 10.5 mph16.9 kmh 29.96 in1014.6 mb 0.00 in0.0 mm 0.00 in0.0 mm 0.00 in0.0 mm
07:22 AM 56.3°F13.5°C 52.5°F11.4°C 87% 1.1 mph SE1.8 kmh SE 6.3 mph10.1 kmh 29.96 in1014.6 mb 0.00 in0.0 mm 0.00 in0.0 mm 0.00 in0.0 mm
07:27 AM 56.5°F13.6°C 52.3°F11.3°C 86% 3.6 mph SE5.8 kmh SE 7.4 mph11.9 kmh 29.96 in1014.6 mb 0.00 in0.0 mm 0.00 in0.0 mm 0.00 in0.0 mm
07:32 AM 56.7°F13.7°C 52.2°F11.2°C 85% 4.9 mph SSW7.9 kmh SSW 9.6 mph15.4 kmh 29.96 in1014.6 mb 0.00 in0.0 mm 0.00 in0.0 mm 0.00 in0.0 mm
07:37 AM 56.7°F13.7°C 52.2°F11.2°C 85% 3.8 mph SE6.1 kmh SE 8.5 mph13.7 kmh 29.96 in1014.6 mb 0.00 in0.0 mm 0.00 in0.0 mm 0.00 in0.0 mm
07:42 AM 56.7°F13.7°C 51.8°F11.0°C 84% 4.5 mph S7.2 kmh S 9.6 mph15.4 kmh 29.96 in1014.6 mb 0.00 in0.0 mm 0.00 in0.0 mm 0.00 in0.0 mm
07:47 AM 56.7°F13.7°C 52.2°F11.2°C 85% 6.5 mph SSW10.5 kmh SSW 9.6 mph15.4 kmh 29.96 in1014.6 mb 0.00 in0.0 mm 0.00 in0.0 mm 0.00 in0.0 mm
07:52 AM 56.5°F13.6°C 52.3°F11.3°C 86% 4.9 mph SSW7.9 kmh SSW 8.5 mph13.7 kmh 29.96 in1014.6 mb 0.00 in0.0 mm 0.00 in0.0 mm 0.00 in0.0 mm
07:57 AM 56.1°F13.4°C 52.3°F11.3°C 87% 3.4 mph SW5.5 kmh SW 7.4 mph11.9 kmh 29.96 in1014.6 mb 0.00 in0.0 mm 0.00 in0.0 mm 0.00 in0.0 mm
08:02 AM 55.9°F13.3°C 52.5°F11.4°C 88% 3.1 mph SSW5.0 kmh SSW 5.4 mph8.7 kmh 29.96 in1014.6 mb 0.00 in0.0 mm 0.00 in0.0 mm 0.00 in0.0 mm
08:07 AM 55.9°F13.3°C 52.7°F11.5°C 89% 1.1 mph SW1.8 kmh SW 3.1 mph5.0 kmh 29.96 in1014.6 mb 0.00 in0.0 mm 0.00 in0.0 mm 0.00 in0.0 mm
08:12 AM 55.9°F13.3°C 52.7°F11.5°C 89% 0.7 mph SSE1.1 kmh SSE 2.0 mph3.2 kmh 29.96 in1014.6 mb 0.00 in0.0 mm 0.00 in0.0 mm 0.00 in0.0 mm
08:17 AM 56.1°F13.4°C 52.9°F11.6°C 89% 2.5 mph S4.0 kmh S 8.5 mph13.7 kmh 29.96 in1014.6 mb 0.00 in0.0 mm 0.00 in0.0 mm 0.00 in0.0 mm
08:22 AM 56.1°F13.4°C 52.7°F11.5°C 88% 4.0 mph SW6.4 kmh SW 6.3 mph10.1 kmh 29.96 in1014.6 mb 0.00 in0.0 mm 0.00 in0.0 mm 0.00 in0.0 mm
08:27 AM 55.8°F13.2°C 52.0°F11.1°C 87% 3.6 mph SSW5.8 kmh SSW 9.6 mph15.4 kmh 29.96 in1014.6 mb 0.00 in0.0 mm 0.00 in0.0 mm 0.00 in0.0 mm
08:32 AM 55.8°F13.2°C 52.0°F11.1°C 87% 4.3 mph SW6.9 kmh SW 6.3 mph10.1 kmh 29.96 in1014.6 mb 0.00 in0.0 mm 0.00 in0.0 mm 0.00 in0.0 mm
08:37 AM 55.8°F13.2°C 52.0°F11.1°C 87% 3.8 mph WSW6.1 kmh WSW 8.5 mph13.7 kmh 29.97 in1014.9 mb 0.00 in0.0 mm 0.00 in0.0 mm 0.00 in0.0 mm
08:42 AM 55.9°F13.3°C 52.2°F11.2°C 87% 3.8 mph SW6.1 kmh SW 6.3 mph10.1 kmh 29.97 in1014.9 mb 0.00 in0.0 mm 0.00 in0.0 mm 0.00 in0.0 mm
08:47 AM 56.1°F13.4°C 52.3°F11.3°C 87% 3.6 mph SSW5.8 kmh SSW 6.3 mph10.1 kmh 29.97 in1014.9 mb 0.00 in0.0 mm 0.00 in0.0 mm 0.00 in0.0 mm
08:52 AM 56.1°F13.4°C 52.3°F11.3°C 87% 2.2 mph S3.5 kmh S 6.3 mph10.1 kmh 29.97 in1014.9 mb 0.00 in0.0 mm 0.00 in0.0 mm 0.00 in0.0 mm
08:57 AM 56.5°F13.6°C 52.7°F11.5°C 87% 2.9 mph SW4.7 kmh SW 5.4 mph8.7 kmh 29.97 in1014.9 mb 0.00 in0.0 mm 0.00 in0.0 mm 0.00 in0.0 mm
09:02 AM 56.5°F13.6°C 52.3°F11.3°C 86% 2.5 mph S4.0 kmh S 5.4 mph8.7 kmh 29.97 in1014.9 mb 0.00 in0.0 mm 0.00 in0.0 mm 0.00 in0.0 mm
09:07 AM 56.7°F13.7°C 52.5°F11.4°C 86% 4.3 mph SE6.9 kmh SE 7.4 mph11.9 kmh 29.98 in1015.2 mb 0.00 in0.0 mm 0.00 in0.0 mm 0.00 in0.0 mm
09:12 AM 56.7°F13.7°C 52.2°F11.2°C 85% 5.1 mph SW8.2 kmh SW 7.4 mph11.9 kmh 29.98 in1015.2 mb 0.00 in0.0 mm 0.00 in0.0 mm 0.00 in0.0 mm
09:17 AM 57.0°F13.9°C 52.2°F11.2°C 84% 4.0 mph SW6.4 kmh SW 8.5 mph13.7 kmh 29.97 in1014.9 mb 0.00 in0.0 mm 0.00 in0.0 mm 0.00 in0.0 mm
09:22 AM 57.0°F13.9°C 52.0°F11.1°C 83% 5.1 mph S8.2 kmh S 10.5 mph16.9 kmh 29.97 in1014.9 mb 0.00 in0.0 mm 0.00 in0.0 mm 0.00 in0.0 mm
09:27 AM 57.4°F14.1°C 52.3°F11.3°C 83% 5.1 mph WSW8.2 kmh WSW 7.4 mph11.9 kmh 29.98 in1015.2 mb 0.00 in0.0 mm 0.00 in0.0 mm 0.00 in0.0 mm
09:32 AM 57.4°F14.1°C 52.3°F11.3°C 83% 3.1 mph SW5.0 kmh SW 9.6 mph15.4 kmh 29.97 in1014.9 mb 0.00 in0.0 mm 0.00 in0.0 mm 0.00 in0.0 mm
09:37 AM 57.6°F14.2°C 52.2°F11.2°C 82% 5.4 mph SW8.7 kmh SW 9.6 mph15.4 kmh 29.97 in1014.9 mb 0.00 in0.0 mm 0.00 in0.0 mm 0.00 in0.0 mm
09:42 AM 57.6°F14.2°C 52.2°F11.2°C 82% 5.1 mph SW8.2 kmh SW 9.6 mph15.4 kmh 29.97 in1014.9 mb 0.00 in0.0 mm 0.00 in0.0 mm 0.00 in0.0 mm
09:47 AM 57.9°F14.4°C 52.5°F11.4°C 82% 4.5 mph SW7.2 kmh SW 7.4 mph11.9 kmh 29.96 in1014.6 mb 0.00 in0.0 mm 0.00 in0.0 mm 0.00 in0.0 mm
09:52 AM 58.5°F14.7°C 52.7°F11.5°C 81% 3.1 mph WSW5.0 kmh WSW 7.4 mph11.9 kmh 29.96 in1014.6 mb 0.00 in0.0 mm 0.00 in0.0 mm 0.00 in0.0 mm
09:57 AM 58.8°F14.9°C 52.3°F11.3°C 79% 6.5 mph SSW10.5 kmh SSW 11.6 mph18.7 kmh 29.96 in1014.6 mb 0.00 in0.0 mm 0.00 in0.0 mm 0.00 in0.0 mm
10:02 AM 59.0°F15.0°C 52.5°F11.4°C 79% 4.0 mph S6.4 kmh S 12.8 mph20.6 kmh 29.96 in1014.6 mb 0.00 in0.0 mm 0.00 in0.0 mm 0.00 in0.0 mm
10:07 AM 59.4°F15.2°C 52.2°F11.2°C 77% 8.7 mph SSW14.0 kmh SSW 10.5 mph16.9 kmh 29.95 in1014.2 mb 0.00 in0.0 mm 0.00 in0.0 mm 0.00 in0.0 mm
10:12 AM 60.1°F15.6°C 53.2°F11.8°C 78% 4.9 mph SW7.9 kmh SW 10.5 mph16.9 kmh 29.96 in1014.6 mb 0.00 in0.0 mm 0.00 in0.0 mm 0.00 in0.0 mm
10:17 AM 60.1°F15.6°C 52.5°F11.4°C 76% 8.7 mph SSW14.0 kmh SSW 13.9 mph22.4 kmh 29.96 in1014.6 mb 0.00 in0.0 mm 0.00 in0.0 mm 0.00 in0.0 mm
10:22 AM 60.4°F15.8°C 52.9°F11.6°C 76% 6.0 mph SSW9.7 kmh SSW 11.6 mph18.7 kmh 29.96 in1014.6 mb 0.00 in0.0 mm 0.00 in0.0 mm 0.00 in0.0 mm
10:27 AM 60.6°F15.9°C 52.7°F11.5°C 75% 9.2 mph SW14.8 kmh SW 13.9 mph22.4 kmh 29.96 in1014.6 mb 0.00 in0.0 mm 0.00 in0.0 mm 0.00 in0.0 mm
10:32 AM 60.3°F15.7°C 52.3°F11.3°C 75% 6.5 mph SW10.5 kmh SW 12.8 mph20.6 kmh 29.96 in1014.6 mb 0.00 in0.0 mm 0.00 in0.0 mm 0.00 in0.0 mm
10:37 AM 60.4°F15.8°C 52.2°F11.2°C 74% 10.1 mph WSW16.3 kmh WSW 15.9 mph25.6 kmh 29.96 in1014.6 mb 0.00 in0.0 mm 0.00 in0.0 mm 0.00 in0.0 mm
10:42 AM 60.3°F15.7°C 52.3°F11.3°C 75% 7.2 mph SW11.6 kmh SW 14.8 mph23.8 kmh 29.96 in1014.6 mb 0.00 in0.0 mm 0.00 in0.0 mm 0.00 in0.0 mm
10:47 AM 61.0°F16.1°C 53.1°F11.7°C 75% 7.6 mph S12.2 kmh S 13.9 mph22.4 kmh 29.96 in1014.6 mb 0.00 in0.0 mm 0.00 in0.0 mm 0.00 in0.0 mm
10:52 AM 60.8°F16.0°C 52.5°F11.4°C 74% 9.2 mph SSW14.8 kmh SSW 18.1 mph29.1 kmh 29.96 in1014.6 mb 0.00 in0.0 mm 0.00 in0.0 mm 0.00 in0.0 mm
10:57 AM 60.6°F15.9°C 52.7°F11.5°C 75% 7.6 mph SW12.2 kmh SW 14.8 mph23.8 kmh 29.96 in1014.6 mb 0.00 in0.0 mm 0.00 in0.0 mm 0.00 in0.0 mm
11:02 AM 61.5°F16.4°C 52.7°F11.5°C 73% 7.4 mph SW11.9 kmh SW 15.9 mph25.6 kmh 29.96 in1014.6 mb 0.00 in0.0 mm 0.00 in0.0 mm 0.00 in0.0 mm
11:07 AM 61.7°F16.5°C 52.5°F11.4°C 72% 7.2 mph SW11.6 kmh SW 13.9 mph22.4 kmh 29.96 in1014.6 mb 0.00 in0.0 mm 0.00 in0.0 mm 0.00 in0.0 mm
11:12 AM 61.5°F16.4°C 52.0°F11.1°C 71% 9.4 mph SW15.1 kmh SW 13.9 mph22.4 kmh 29.95 in1014.2 mb 0.00 in0.0 mm 0.00 in0.0 mm 0.00 in0.0 mm
11:17 AM 61.5°F16.4°C 52.3°F11.3°C 72% 8.1 mph SW13.0 kmh SW 13.9 mph22.4 kmh 29.95 in1014.2 mb 0.00 in0.0 mm 0.00 in0.0 mm 0.00 in0.0 mm
11:22 AM 62.2°F16.8°C 52.7°F11.5°C 71% 5.1 mph SW8.2 kmh SW 11.6 mph18.7 kmh 29.96 in1014.6 mb 0.00 in0.0 mm 0.00 in0.0 mm 0.00 in0.0 mm
11:27 AM 61.5°F16.4°C 51.6°F10.9°C 70% 8.9 mph SW14.3 kmh SW 15.9 mph25.6 kmh 29.95 in1014.2 mb 0.00 in0.0 mm 0.00 in0.0 mm 0.00 in0.0 mm
11:32 AM 61.5°F16.4°C 52.0°F11.1°C 71% 8.1 mph SW13.0 kmh SW 13.9 mph22.4 kmh 29.96 in1014.6 mb 0.00 in0.0 mm 0.00 in0.0 mm 0.00 in0.0 mm
11:37 AM 61.3°F16.3°C 52.2°F11.2°C 72% 9.8 mph S15.8 kmh S 15.9 mph25.6 kmh 29.96 in1014.6 mb 0.00 in0.0 mm 0.00 in0.0 mm 0.00 in0.0 mm
11:42 AM 61.5°F16.4°C 52.3°F11.3°C 72% 6.9 mph SW11.1 kmh SW 14.8 mph23.8 kmh 29.95 in1014.2 mb 0.00 in0.0 mm 0.00 in0.0 mm 0.00 in0.0 mm
11:47 AM 61.3°F16.3°C 52.2°F11.2°C 72% 6.7 mph S10.8 kmh S 14.8 mph23.8 kmh 29.94 in1013.9 mb 0.00 in0.0 mm 0.00 in0.0 mm 0.00 in0.0 mm
11:52 AM 61.2°F16.2°C 52.0°F11.1°C 72% 10.3 mph WSW16.6 kmh WSW 17.0 mph27.4 kmh 29.94 in1013.9 mb 0.00 in0.0 mm 0.00 in0.0 mm 0.00 in0.0 mm
11:57 AM 61.3°F16.3°C 52.2°F11.2°C 72% 9.2 mph SW14.8 kmh SW 13.9 mph22.4 kmh 29.94 in1013.9 mb 0.00 in0.0 mm 0.00 in0.0 mm 0.00 in0.0 mm
12:02 PM 61.5°F16.4°C 51.6°F10.9°C 70% 9.2 mph SW14.8 kmh SW 15.9 mph25.6 kmh 29.94 in1013.9 mb 0.00 in0.0 mm 0.00 in0.0 mm 0.00 in0.0 mm
12:07 PM 61.3°F16.3°C 51.4°F10.8°C 70% 9.6 mph SW15.4 kmh SW 15.9 mph25.6 kmh 29.94 in1013.9 mb 0.00 in0.0 mm 0.00 in0.0 mm 0.00 in0.0 mm
12:12 PM 61.0°F16.1°C 52.0°F11.1°C 72% 7.8 mph SW12.6 kmh SW 14.8 mph23.8 kmh 29.94 in1013.9 mb 0.00 in0.0 mm 0.00 in0.0 mm 0.00 in0.0 mm
12:17 PM 61.0°F16.1°C 52.3°F11.3°C 73% 9.4 mph SSW15.1 kmh SSW 14.8 mph23.8 kmh 29.93 in1013.5 mb 0.00 in0.0 mm 0.00 in0.0 mm 0.00 in0.0 mm
12:22 PM 61.2°F16.2°C 52.0°F11.1°C 72% 7.4 mph SW11.9 kmh SW 18.1 mph29.1 kmh 29.94 in1013.9 mb 0.00 in0.0 mm 0.00 in0.0 mm 0.00 in0.0 mm
12:27 PM 61.2°F16.2°C 52.5°F11.4°C 73% 6.9 mph S11.1 kmh S 17.0 mph27.4 kmh 29.94 in1013.9 mb 0.00 in0.0 mm 0.00 in0.0 mm 0.00 in0.0 mm
12:32 PM 61.0°F16.1°C 52.0°F11.1°C 72% 9.4 mph S15.1 kmh S 17.0 mph27.4 kmh 29.94 in1013.9 mb 0.00 in0.0 mm 0.00 in0.0 mm 0.00 in0.0 mm
12:37 PM 61.5°F16.4°C 52.3°F11.3°C 72% 6.9 mph SW11.1 kmh SW 15.9 mph25.6 kmh 29.93 in1013.5 mb 0.00 in0.0 mm 0.00 in0.0 mm 0.00 in0.0 mm
12:42 PM 61.5°F16.4°C 52.0°F11.1°C 71% 8.7 mph SW14.0 kmh SW 14.8 mph23.8 kmh 29.93 in1013.5 mb 0.00 in0.0 mm 0.00 in0.0 mm 0.00 in0.0 mm
12:47 PM 61.7°F16.5°C 52.2°F11.2°C 71% 11.2 mph SW18.0 kmh SW 15.9 mph25.6 kmh 29.93 in1013.5 mb 0.00 in0.0 mm 0.00 in0.0 mm 0.00 in0.0 mm
12:52 PM 61.3°F16.3°C 52.2°F11.2°C 72% 11.4 mph SW18.3 kmh SW 17.0 mph27.4 kmh 29.92 in1013.2 mb 0.00 in0.0 mm 0.00 in0.0 mm 0.00 in0.0 mm
12:57 PM 61.2°F16.2°C 52.5°F11.4°C 73% 7.8 mph SSW12.6 kmh SSW 14.8 mph23.8 kmh 29.93 in1013.5 mb 0.00 in0.0 mm 0.00 in0.0 mm 0.00 in0.0 mm
01:02 PM 60.6°F15.9°C 52.3°F11.3°C 74% 10.1 mph S16.3 kmh S 15.9 mph25.6 kmh 29.92 in1013.2 mb 0.00 in0.0 mm 0.00 in0.0 mm 0.00 in0.0 mm
01:07 PM 60.6°F15.9°C 52.3°F11.3°C 74% 10.1 mph SW16.3 kmh SW 15.9 mph25.6 kmh 29.92 in1013.2 mb 0.00 in0.0 mm 0.00 in0.0 mm 0.00 in0.0 mm
01:12 PM 60.4°F15.8°C 52.5°F11.4°C 75% 8.5 mph SW13.7 kmh SW 20.1 mph32.3 kmh 29.92 in1013.2 mb 0.00 in0.0 mm 0.00 in0.0 mm 0.00 in0.0 mm
01:22 PM 61.2°F16.2°C 52.5°F11.4°C 73% 11.0 mph WSW17.7 kmh WSW 15.9 mph25.6 kmh 29.93 in1013.5 mb 0.00 in0.0 mm 0.00 in0.0 mm 0.00 in0.0 mm
01:27 PM 61.0°F16.1°C 52.3°F11.3°C 73% 9.2 mph S14.8 kmh S 17.0 mph27.4 kmh 29.93 in1013.5 mb 0.00 in0.0 mm 0.00 in0.0 mm 0.00 in0.0 mm
01:32 PM 60.8°F16.0°C 52.5°F11.4°C 74% 8.9 mph SW14.3 kmh SW 15.9 mph25.6 kmh 29.92 in1013.2 mb 0.00 in0.0 mm 0.00 in0.0 mm 0.00 in0.0 mm
01:37 PM 61.0°F16.1°C 52.7°F11.5°C 74% 9.6 mph SW15.4 kmh SW 19.0 mph30.6 kmh 29.92 in1013.2 mb 0.00 in0.0 mm 0.00 in0.0 mm 0.00 in0.0 mm
01:42 PM 60.8°F16.0°C 52.2°F11.2°C 73% 11.6 mph SW18.7 kmh SW 17.0 mph27.4 kmh 29.92 in1013.2 mb 0.00 in0.0 mm 0.00 in0.0 mm 0.00 in0.0 mm
01:47 PM 60.6°F15.9°C 52.0°F11.1°C 73% 11.2 mph WSW18.0 kmh WSW 19.0 mph30.6 kmh 29.92 in1013.2 mb 0.00 in0.0 mm 0.00 in0.0 mm 0.00 in0.0 mm
01:52 PM 60.4°F15.8°C 51.8°F11.0°C 73% 10.3 mph WSW16.6 kmh WSW 19.0 mph30.6 kmh 29.93 in1013.5 mb 0.00 in0.0 mm 0.00 in0.0 mm 0.00 in0.0 mm
01:57 PM 60.3°F15.7°C 52.0°F11.1°C 74% 9.6 mph WSW15.4 kmh WSW 18.1 mph29.1 kmh 29.93 in1013.5 mb 0.00 in0.0 mm 0.00 in0.0 mm 0.00 in0.0 mm
02:02 PM 60.3°F15.7°C 51.6°F10.9°C 73% 12.5 mph SW20.1 kmh SW 18.1 mph29.1 kmh 29.92 in1013.2 mb 0.00 in0.0 mm 0.00 in0.0 mm 0.00 in0.0 mm
02:07 PM 60.1°F15.6°C 51.8°F11.0°C 74% 10.5 mph SW16.9 kmh SW 17.0 mph27.4 kmh 29.92 in1013.2 mb 0.00 in0.0 mm 0.00 in0.0 mm 0.00 in0.0 mm
02:12 PM 59.7°F15.4°C 51.4°F10.8°C 74% 12.5 mph SW20.1 kmh SW 22.4 mph36.0 kmh 29.92 in1013.2 mb 0.00 in0.0 mm 0.00 in0.0 mm 0.00 in0.0 mm
02:17 PM 59.5°F15.3°C 52.0°F11.1°C 76% 8.3 mph SW13.4 kmh SW 13.9 mph22.4 kmh 29.93 in1013.5 mb 0.00 in0.0 mm 0.00 in0.0 mm 0.00 in0.0 mm
02:22 PM 59.5°F15.3°C 51.6°F10.9°C 75% 8.1 mph SSW13.0 kmh SSW 14.8 mph23.8 kmh 29.93 in1013.5 mb 0.00 in0.0 mm 0.00 in0.0 mm 0.00 in0.0 mm
02:27 PM 59.4°F15.2°C 51.4°F10.8°C 75% 11.0 mph SSW17.7 kmh SSW 17.0 mph27.4 kmh 29.93 in1013.5 mb 0.00 in0.0 mm 0.00 in0.0 mm 0.00 in0.0 mm
02:32 PM 59.0°F15.0°C 51.4°F10.8°C 76% 8.7 mph S14.0 kmh S 15.9 mph25.6 kmh 29.92 in1013.2 mb 0.00 in0.0 mm 0.00 in0.0 mm 0.00 in0.0 mm
02:37 PM 59.2°F15.1°C 51.3°F10.7°C 75% 10.1 mph WSW16.3 kmh WSW 14.8 mph23.8 kmh 29.92 in1013.2 mb 0.00 in0.0 mm 0.00 in0.0 mm 0.00 in0.0 mm
02:42 PM 59.2°F15.1°C 51.3°F10.7°C 75% 8.7 mph SSE14.0 kmh SSE 13.9 mph22.4 kmh 29.92 in1013.2 mb 0.00 in0.0 mm 0.00 in0.0 mm 0.00 in0.0 mm
02:47 PM 59.2°F15.1°C 50.9°F10.5°C 74% 9.8 mph SW15.8 kmh SW 18.1 mph29.1 kmh 29.91 in1012.9 mb 0.00 in0.0 mm 0.00 in0.0 mm 0.00 in0.0 mm
02:52 PM 59.2°F15.1°C 50.9°F10.5°C 74% 10.5 mph SSW16.9 kmh SSW 15.9 mph25.6 kmh 29.90 in1012.5 mb 0.00 in0.0 mm 0.00 in0.0 mm 0.00 in0.0 mm
02:57 PM 59.0°F15.0°C 51.1°F10.6°C 75% 10.3 mph S16.6 kmh S 18.1 mph29.1 kmh 29.91 in1012.9 mb 0.00 in0.0 mm 0.00 in0.0 mm 0.00 in0.0 mm
03:02 PM 59.0°F15.0°C 51.4°F10.8°C 76% 6.5 mph SW10.5 kmh SW 13.9 mph22.4 kmh 29.91 in1012.9 mb 0.00 in0.0 mm 0.00 in0.0 mm 0.00 in0.0 mm
03:07 PM 59.0°F15.0°C 51.4°F10.8°C 76% 7.6 mph SW12.2 kmh SW 12.8 mph20.6 kmh 29.91 in1012.9 mb 0.00 in0.0 mm 0.00 in0.0 mm 0.00 in0.0 mm
03:12 PM 58.6°F14.8°C 51.1°F10.6°C 76% 9.2 mph SSW14.8 kmh SSW 15.9 mph25.6 kmh 29.91 in1012.9 mb 0.00 in0.0 mm 0.00 in0.0 mm 0.00 in0.0 mm
03:17 PM 58.6°F14.8°C 51.4°F10.8°C 77% 6.5 mph ESE10.5 kmh ESE 11.6 mph18.7 kmh 29.90 in1012.5 mb 0.00 in0.0 mm 0.00 in0.0 mm 0.00 in0.0 mm
03:22 PM 58.6°F14.8°C 51.8°F11.0°C 78% 7.8 mph SW12.6 kmh SW 17.0 mph27.4 kmh 29.91 in1012.9 mb 0.00 in0.0 mm 0.00 in0.0 mm 0.00 in0.0 mm
03:27 PM 58.3°F14.6°C 51.8°F11.0°C 79% 5.6 mph SW9.0 kmh SW 10.5 mph16.9 kmh 29.91 in1012.9 mb 0.00 in0.0 mm 0.00 in0.0 mm 0.00 in0.0 mm
03:32 PM 58.3°F14.6°C 51.8°F11.0°C 79% 8.1 mph SW13.0 kmh SW 11.6 mph18.7 kmh 29.91 in1012.9 mb 0.00 in0.0 mm 0.00 in0.0 mm 0.00 in0.0 mm
03:37 PM 57.7°F14.3°C 51.6°F10.9°C 80% 7.8 mph SE12.6 kmh SE 13.9 mph22.4 kmh 29.91 in1012.9 mb 0.00 in0.0 mm 0.00 in0.0 mm 0.00 in0.0 mm
03:42 PM 57.7°F14.3°C 51.6°F10.9°C 80% 5.1 mph SSE8.2 kmh SSE 11.6 mph18.7 kmh 29.91 in1012.9 mb 0.00 in0.0 mm 0.00 in0.0 mm 0.00 in0.0 mm
03:47 PM 57.7°F14.3°C 51.6°F10.9°C 80% 4.9 mph SSW7.9 kmh SSW 10.5 mph16.9 kmh 29.91 in1012.9 mb 0.00 in0.0 mm 0.00 in0.0 mm 0.00 in0.0 mm
03:52 PM 57.7°F14.3°C 51.3°F10.7°C 79% 8.3 mph SW13.4 kmh SW 12.8 mph20.6 kmh 29.91 in1012.9 mb 0.00 in0.0 mm 0.00 in0.0 mm 0.00 in0.0 mm
03:57 PM 57.6°F14.2°C 51.1°F10.6°C 79% 6.5 mph SSW10.5 kmh SSW 12.8 mph20.6 kmh 29.90 in1012.5 mb 0.00 in0.0 mm 0.00 in0.0 mm 0.00 in0.0 mm
04:02 PM 57.7°F14.3°C 51.3°F10.7°C 79% 5.8 mph SW9.3 kmh SW 10.5 mph16.9 kmh 29.90 in1012.5 mb 0.00 in0.0 mm 0.00 in0.0 mm 0.00 in0.0 mm
04:07 PM 57.7°F14.3°C 50.9°F10.5°C 78% 6.7 mph WSW10.8 kmh WSW 13.9 mph22.4 kmh 29.91 in1012.9 mb 0.00 in0.0 mm 0.00 in0.0 mm 0.00 in0.0 mm
04:12 PM 57.6°F14.2°C 51.1°F10.6°C 79% 7.8 mph SW12.6 kmh SW 13.9 mph22.4 kmh 29.91 in1012.9 mb 0.00 in0.0 mm 0.00 in0.0 mm 0.00 in0.0 mm
04:17 PM 57.4°F14.1°C 50.9°F10.5°C 79% 8.3 mph SSW13.4 kmh SSW 13.9 mph22.4 kmh 29.90 in1012.5 mb 0.00 in0.0 mm 0.00 in0.0 mm 0.00 in0.0 mm
04:22 PM 57.2°F14.0°C 51.1°F10.6°C 80% 6.0 mph SW9.7 kmh SW 14.8 mph23.8 kmh 29.90 in1012.5 mb 0.00 in0.0 mm 0.00 in0.0 mm 0.00 in0.0 mm
04:27 PM 57.2°F14.0°C 51.1°F10.6°C 80% 7.2 mph WSW11.6 kmh WSW 13.9 mph22.4 kmh 29.91 in1012.9 mb 0.00 in0.0 mm 0.00 in0.0 mm 0.00 in0.0 mm
04:32 PM 57.0°F13.9°C 51.3°F10.7°C 81% 2.7 mph SW4.3 kmh SW 11.6 mph18.7 kmh 29.90 in1012.5 mb 0.00 in0.0 mm 0.00 in0.0 mm 0.00 in0.0 mm
04:37 PM 57.0°F13.9°C 50.9°F10.5°C 80% 6.3 mph SW10.1 kmh SW 11.6 mph18.7 kmh 29.90 in1012.5 mb 0.00 in0.0 mm 0.00 in0.0 mm 0.00 in0.0 mm
04:42 PM 57.0°F13.9°C 50.9°F10.5°C 80% 8.1 mph SSW13.0 kmh SSW 11.6 mph18.7 kmh 29.90 in1012.5 mb 0.00 in0.0 mm 0.00 in0.0 mm 0.00 in0.0 mm
04:47 PM 57.0°F13.9°C 50.5°F10.3°C 79% 7.4 mph SW11.9 kmh SW 13.9 mph22.4 kmh 29.89 in1012.2 mb 0.00 in0.0 mm 0.00 in0.0 mm 0.00 in0.0 mm
04:52 PM 57.2°F14.0°C 50.7°F10.4°C 79% 5.8 mph SW9.3 kmh SW 10.5 mph16.9 kmh 29.90 in1012.5 mb 0.00 in0.0 mm 0.00 in0.0 mm 0.00 in0.0 mm
04:57 PM 57.0°F13.9°C 50.5°F10.3°C 79% 6.7 mph SW10.8 kmh SW 12.8 mph20.6 kmh 29.89 in1012.2 mb 0.00 in0.0 mm 0.00 in0.0 mm 0.00 in0.0 mm
05:02 PM 57.0°F13.9°C 50.5°F10.3°C 79% 7.4 mph SW11.9 kmh SW 12.8 mph20.6 kmh 29.88 in1011.9 mb 0.00 in0.0 mm 0.00 in0.0 mm 0.00 in0.0 mm
05:07 PM 57.0°F13.9°C 50.9°F10.5°C 80% 7.4 mph SW11.9 kmh SW 12.8 mph20.6 kmh 29.89 in1012.2 mb 0.00 in0.0 mm 0.00 in0.0 mm 0.00 in0.0 mm
05:12 PM 56.8°F13.8°C 50.7°F10.4°C 80% 5.4 mph SW8.7 kmh SW 13.9 mph22.4 kmh 29.88 in1011.9 mb 0.00 in0.0 mm 0.00 in0.0 mm 0.00 in0.0 mm
05:17 PM 56.8°F13.8°C 50.7°F10.4°C 80% 5.6 mph SW9.0 kmh SW 10.5 mph16.9 kmh 29.88 in1011.9 mb 0.00 in0.0 mm 0.00 in0.0 mm 0.00 in0.0 mm
05:22 PM 57.0°F13.9°C 50.9°F10.5°C 80% 6.5 mph SSW10.5 kmh SSW 11.6 mph18.7 kmh 29.88 in1011.9 mb 0.00 in0.0 mm 0.00 in0.0 mm 0.00 in0.0 mm
05:27 PM 56.8°F13.8°C 50.7°F10.4°C 80% 4.9 mph SSE7.9 kmh SSE 11.6 mph18.7 kmh 29.88 in1011.9 mb 0.00 in0.0 mm 0.00 in0.0 mm 0.00 in0.0 mm
05:32 PM 56.8°F13.8°C 50.7°F10.4°C 80% 7.6 mph SW12.2 kmh SW 14.8 mph23.8 kmh 29.88 in1011.9 mb 0.00 in0.0 mm 0.00 in0.0 mm 0.00 in0.0 mm
05:37 PM 56.8°F13.8°C 50.7°F10.4°C 80% 5.8 mph SW9.3 kmh SW 11.6 mph18.7 kmh 29.87 in1011.5 mb 0.00 in0.0 mm 0.00 in0.0 mm 0.00 in0.0 mm
05:42 PM 56.8°F13.8°C 51.1°F10.6°C 81% 2.9 mph SSE4.7 kmh SSE 12.8 mph20.6 kmh 29.88 in1011.9 mb 0.00 in0.0 mm 0.00 in0.0 mm 0.00 in0.0 mm
05:47 PM 56.8°F13.8°C 51.1°F10.6°C 81% 4.0 mph SW6.4 kmh SW 8.5 mph13.7 kmh 29.88 in1011.9 mb 0.00 in0.0 mm 0.00 in0.0 mm 0.00 in0.0 mm
05:52 PM 56.7°F13.7°C 50.9°F10.5°C 81% 8.1 mph SW13.0 kmh SW 11.6 mph18.7 kmh 29.88 in1011.9 mb 0.00 in0.0 mm 0.00 in0.0 mm 0.00 in0.0 mm
05:57 PM 56.7°F13.7°C 51.3°F10.7°C 82% 4.3 mph S6.9 kmh S 10.5 mph16.9 kmh 29.88 in1011.9 mb 0.00 in0.0 mm 0.00 in0.0 mm 0.00 in0.0 mm
06:02 PM 56.7°F13.7°C 51.3°F10.7°C 82% 4.7 mph SW7.6 kmh SW 10.5 mph16.9 kmh 29.88 in1011.9 mb 0.00 in0.0 mm 0.00 in0.0 mm 0.00 in0.0 mm
06:07 PM 56.5°F13.6°C 50.7°F10.4°C 81% 7.8 mph SW12.6 kmh SW 13.9 mph22.4 kmh 29.87 in1011.5 mb 0.00 in0.0 mm 0.00 in0.0 mm 0.00 in0.0 mm
06:12 PM 56.5°F13.6°C 51.1°F10.6°C 82% 5.4 mph SW8.7 kmh SW 13.9 mph22.4 kmh 29.87 in1011.5 mb 0.00 in0.0 mm 0.00 in0.0 mm 0.00 in0.0 mm
06:17 PM 56.3°F13.5°C 50.9°F10.5°C 82% 6.5 mph SW10.5 kmh SW 12.8 mph20.6 kmh 29.87 in1011.5 mb 0.00 in0.0 mm 0.00 in0.0 mm 0.00 in0.0 mm
06:22 PM 56.1°F13.4°C 51.1°F10.6°C 83% 5.4 mph SW8.7 kmh SW 11.6 mph18.7 kmh 29.88 in1011.9 mb 0.00 in0.0 mm 0.00 in0.0 mm 0.00 in0.0 mm
06:27 PM 56.1°F13.4°C 51.4°F10.8°C 84% 3.4 mph SW5.5 kmh SW 9.6 mph15.4 kmh 29.87 in1011.5 mb 0.00 in0.0 mm 0.00 in0.0 mm 0.00 in0.0 mm
06:32 PM 56.1°F13.4°C 51.4°F10.8°C 84% 4.3 mph SE6.9 kmh SE 9.6 mph15.4 kmh 29.87 in1011.5 mb 0.00 in0.0 mm 0.00 in0.0 mm 0.00 in0.0 mm
06:37 PM 56.1°F13.4°C 51.4°F10.8°C 84% 5.8 mph SW9.3 kmh SW 9.6 mph15.4 kmh 29.88 in1011.9 mb 0.00 in0.0 mm 0.00 in0.0 mm 0.00 in0.0 mm
06:42 PM 56.1°F13.4°C 51.6°F10.9°C 85% 4.3 mph SW6.9 kmh SW 12.8 mph20.6 kmh 29.88 in1011.9 mb 0.00 in0.0 mm 0.00 in0.0 mm 0.00 in0.0 mm
06:47 PM 55.9°F13.3°C 51.4°F10.8°C 85% 4.9 mph SW7.9 kmh SW 9.6 mph15.4 kmh 29.88 in1011.9 mb 0.00 in0.0 mm 0.00 in0.0 mm 0.00 in0.0 mm
06:52 PM 55.9°F13.3°C 51.8°F11.0°C 86% 2.9 mph SW4.7 kmh SW 10.5 mph16.9 kmh 29.88 in1011.9 mb 0.00 in0.0 mm 0.00 in0.0 mm 0.00 in0.0 mm
06:57 PM 55.9°F13.3°C 52.2°F11.2°C 87% 2.5 mph SE4.0 kmh SE 6.3 mph10.1 kmh 29.88 in1011.9 mb 0.00 in0.0 mm 0.00 in0.0 mm 0.00 in0.0 mm
07:02 PM 55.8°F13.2°C 52.0°F11.1°C 87% 4.0 mph SSW6.4 kmh SSW 7.4 mph11.9 kmh 29.88 in1011.9 mb 0.00 in0.0 mm 0.00 in0.0 mm 0.00 in0.0 mm
07:07 PM 55.8°F13.2°C 52.0°F11.1°C 87% 4.7 mph SSW7.6 kmh SSW 8.5 mph13.7 kmh 29.88 in1011.9 mb 0.00 in0.0 mm 0.00 in0.0 mm 0.00 in0.0 mm
07:12 PM 55.4°F13.0°C 51.6°F10.9°C 87% 6.0 mph SSE9.7 kmh SSE 12.8 mph20.6 kmh 29.88 in1011.9 mb 0.00 in0.0 mm 0.00 in0.0 mm 0.00 in0.0 mm
07:17 PM 55.2°F12.9°C 51.4°F10.8°C 87% 6.0 mph WSW9.7 kmh WSW 10.5 mph16.9 kmh 29.88 in1011.9 mb 0.00 in0.0 mm 0.00 in0.0 mm 0.00 in0.0 mm
07:22 PM 55.0°F12.8°C 51.6°F10.9°C 88% 4.7 mph SW7.6 kmh SW 11.6 mph18.7 kmh 29.88 in1011.9 mb 0.00 in0.0 mm 0.00 in0.0 mm 0.00 in0.0 mm
07:27 PM 55.2°F12.9°C 52.0°F11.1°C 89% 2.2 mph S3.5 kmh S 6.3 mph10.1 kmh 29.88 in1011.9 mb 0.00 in0.0 mm 0.00 in0.0 mm 0.00 in0.0 mm
07:32 PM 55.0°F12.8°C 51.8°F11.0°C 89% 4.7 mph SW7.6 kmh SW 10.5 mph16.9 kmh 29.88 in1011.9 mb 0.00 in0.0 mm 0.00 in0.0 mm 0.00 in0.0 mm
07:37 PM 55.0°F12.8°C 51.8°F11.0°C 89% 2.5 mph SE4.0 kmh SE 11.6 mph18.7 kmh 29.88 in1011.9 mb 0.00 in0.0 mm 0.00 in0.0 mm 0.00 in0.0 mm
07:42 PM 55.0°F12.8°C 52.2°F11.2°C 90% 2.0 mph SW3.2 kmh SW 5.4 mph8.7 kmh 29.88 in1011.9 mb 0.00 in0.0 mm 0.00 in0.0 mm 0.00 in0.0 mm
07:47 PM 55.0°F12.8°C 52.2°F11.2°C 90% 2.7 mph SSE4.3 kmh SSE 5.4 mph8.7 kmh 29.88 in1011.9 mb 0.00 in0.0 mm 0.00 in0.0 mm 0.00 in0.0 mm
07:52 PM 54.9°F12.7°C 52.0°F11.1°C 90% 2.5 mph SW4.0 kmh SW 7.4 mph11.9 kmh 29.88 in1011.9 mb 0.00 in0.0 mm 0.00 in0.0 mm 0.00 in0.0 mm
07:57 PM 55.0°F12.8°C 52.5°F11.4°C 91% 1.3 mph S2.1 kmh S 4.3 mph6.9 kmh 29.88 in1011.9 mb 0.00 in0.0 mm 0.00 in0.0 mm 0.00 in0.0 mm
08:02 PM 54.9°F12.7°C 52.3°F11.3°C 91% 2.5 mph SE4.0 kmh SE 4.3 mph6.9 kmh 29.88 in1011.9 mb 0.00 in0.0 mm 0.00 in0.0 mm 0.00 in0.0 mm
08:07 PM 54.9°F12.7°C 52.3°F11.3°C 91% 2.9 mph SE4.7 kmh SE 7.4 mph11.9 kmh 29.88 in1011.9 mb 0.00 in0.0 mm 0.00 in0.0 mm 0.00 in0.0 mm
08:12 PM 54.9°F12.7°C 52.3°F11.3°C 91% 4.5 mph SSW7.2 kmh SSW 7.4 mph11.9 kmh 29.88 in1011.9 mb 0.00 in0.0 mm 0.00 in0.0 mm 0.00 in0.0 mm
08:17 PM 55.0°F12.8°C 52.7°F11.5°C 92% 1.8 mph SW2.9 kmh SW 6.3 mph10.1 kmh 29.88 in1011.9 mb 0.01 in0.3 mm 0.12 in3.0 mm 0.01 in0.3 mm
08:22 PM 55.0°F12.8°C 52.7°F11.5°C 92% 1.6 mph SE2.6 kmh SE 5.4 mph8.7 kmh 29.88 in1011.9 mb 0.01 in0.3 mm 0.00 in0.0 mm 0.01 in0.3 mm
08:27 PM 55.0°F12.8°C 52.5°F11.4°C 91% 4.7 mph W7.6 kmh W 8.5 mph13.7 kmh 29.88 in1011.9 mb 0.01 in0.3 mm 0.00 in0.0 mm 0.01 in0.3 mm
08:32 PM 55.0°F12.8°C 52.5°F11.4°C 91% 1.8 mph NW2.9 kmh NW 6.3 mph10.1 kmh 29.88 in1011.9 mb 0.01 in0.3 mm 0.00 in0.0 mm 0.01 in0.3 mm
08:37 PM 55.0°F12.8°C 52.5°F11.4°C 91% 2.0 mph WSW3.2 kmh WSW 6.3 mph10.1 kmh 29.88 in1011.9 mb 0.01 in0.3 mm 0.00 in0.0 mm 0.01 in0.3 mm
08:42 PM 55.0°F12.8°C 52.5°F11.4°C 91% 3.4 mph WSW5.5 kmh WSW 6.3 mph10.1 kmh 29.88 in1011.9 mb 0.01 in0.3 mm 0.00 in0.0 mm 0.01 in0.3 mm
08:47 PM 55.0°F12.8°C 52.5°F11.4°C 91% 3.6 mph WSW5.8 kmh WSW 8.5 mph13.7 kmh 29.88 in1011.9 mb 0.01 in0.3 mm 0.00 in0.0 mm 0.01 in0.3 mm
08:52 PM 55.0°F12.8°C 52.2°F11.2°C 90% 2.0 mph W3.2 kmh W 5.4 mph8.7 kmh 29.88 in1011.9 mb 0.01 in0.3 mm 0.00 in0.0 mm 0.01 in0.3 mm
08:57 PM 55.0°F12.8°C 52.2°F11.2°C 90% 1.8 mph NNW2.9 kmh NNW 9.6 mph15.4 kmh 29.88 in1011.9 mb 0.01 in0.3 mm 0.00 in0.0 mm 0.01 in0.3 mm
09:02 PM 55.0°F12.8°C 52.2°F11.2°C 90% 2.9 mph WNW4.7 kmh WNW 5.4 mph8.7 kmh 29.88 in1011.9 mb 0.01 in0.3 mm 0.00 in0.0 mm 0.01 in0.3 mm
09:07 PM 55.0°F12.8°C 52.2°F11.2°C 90% 2.7 mph WSW4.3 kmh WSW 5.4 mph8.7 kmh 29.88 in1011.9 mb 0.01 in0.3 mm 0.00 in0.0 mm 0.01 in0.3 mm
09:12 PM 55.0°F12.8°C 51.8°F11.0°C 89% 3.4 mph WSW5.5 kmh WSW 6.3 mph10.1 kmh 29.88 in1011.9 mb 0.01 in0.3 mm 0.00 in0.0 mm 0.01 in0.3 mm
09:17 PM 55.0°F12.8°C 51.8°F11.0°C 89% 2.9 mph W4.7 kmh W 7.4 mph11.9 kmh 29.88 in1011.9 mb 0.00 in0.0 mm 0.00 in0.0 mm 0.01 in0.3 mm
09:22 PM 55.0°F12.8°C 51.8°F11.0°C 89% 2.0 mph WNW3.2 kmh WNW 8.5 mph13.7 kmh 29.88 in1011.9 mb 0.00 in0.0 mm 0.00 in0.0 mm 0.01 in0.3 mm
09:27 PM 55.0°F12.8°C 51.6°F10.9°C 88% 4.0 mph SW6.4 kmh SW 8.5 mph13.7 kmh 29.89 in1012.2 mb 0.00 in0.0 mm 0.00 in0.0 mm 0.01 in0.3 mm
09:32 PM 55.2°F12.9°C 51.8°F11.0°C 88% 1.3 mph WSW2.1 kmh WSW 7.4 mph11.9 kmh 29.89 in1012.2 mb 0.00 in0.0 mm 0.00 in0.0 mm 0.01 in0.3 mm
09:37 PM 55.0°F12.8°C 51.6°F10.9°C 88% 1.6 mph WNW2.6 kmh WNW 11.6 mph18.7 kmh 29.89 in1012.2 mb 0.00 in0.0 mm 0.00 in0.0 mm 0.01 in0.3 mm
09:42 PM 55.0°F12.8°C 51.6°F10.9°C 88% 1.6 mph W2.6 kmh W 3.1 mph5.0 kmh 29.89 in1012.2 mb 0.00 in0.0 mm 0.00 in0.0 mm 0.01 in0.3 mm
09:47 PM 55.0°F12.8°C 51.6°F10.9°C 88% 0.9 mph SW1.4 kmh SW 7.4 mph11.9 kmh 29.89 in1012.2 mb 0.00 in0.0 mm 0.00 in0.0 mm 0.01 in0.3 mm
09:52 PM 55.0°F12.8°C 51.6°F10.9°C 88% 2.2 mph W3.5 kmh W 6.3 mph10.1 kmh 29.89 in1012.2 mb 0.00 in0.0 mm 0.00 in0.0 mm 0.01 in0.3 mm
09:57 PM 55.0°F12.8°C 51.3°F10.7°C 87% 0.7 mph W1.1 kmh W 8.5 mph13.7 kmh 29.89 in1012.2 mb 0.00 in0.0 mm 0.00 in0.0 mm 0.01 in0.3 mm
10:02 PM 55.0°F12.8°C 51.3°F10.7°C 87% 1.3 mph NW2.1 kmh NW 6.3 mph10.1 kmh 29.89 in1012.2 mb 0.00 in0.0 mm 0.00 in0.0 mm 0.01 in0.3 mm
10:07 PM 54.9°F12.7°C 51.1°F10.6°C 87% 2.0 mph WNW3.2 kmh WNW 6.3 mph10.1 kmh 29.89 in1012.2 mb 0.00 in0.0 mm 0.00 in0.0 mm 0.01 in0.3 mm
10:12 PM 54.9°F12.7°C 50.7°F10.4°C 86% 2.2 mph W3.5 kmh W 4.3 mph6.9 kmh 29.89 in1012.2 mb 0.00 in0.0 mm 0.00 in0.0 mm 0.01 in0.3 mm
10:17 PM 54.9°F12.7°C 50.7°F10.4°C 86% 0.9 mph NW1.4 kmh NW 5.4 mph8.7 kmh 29.89 in1012.2 mb 0.00 in0.0 mm 0.00 in0.0 mm 0.01 in0.3 mm
10:22 PM 54.9°F12.7°C 50.7°F10.4°C 86% 1.3 mph WSW2.1 kmh WSW 3.1 mph5.0 kmh 29.89 in1012.2 mb 0.00 in0.0 mm 0.00 in0.0 mm 0.01 in0.3 mm
10:27 PM 54.9°F12.7°C 50.7°F10.4°C 86% 3.8 mph W6.1 kmh W 9.6 mph15.4 kmh 29.89 in1012.2 mb 0.00 in0.0 mm 0.00 in0.0 mm 0.01 in0.3 mm
10:33 PM 54.9°F12.7°C 50.4°F10.2°C 85% 4.3 mph W6.9 kmh W 7.4 mph11.9 kmh 29.89 in1012.2 mb 0.00 in0.0 mm 0.00 in0.0 mm 0.01 in0.3 mm
10:38 PM 54.7°F12.6°C 50.2°F10.1°C 85% 1.1 mph NW1.8 kmh NW 5.4 mph8.7 kmh 29.89 in1012.2 mb 0.00 in0.0 mm 0.00 in0.0 mm 0.01 in0.3 mm
10:43 PM 54.7°F12.6°C 50.0°F10.0°C 84% 4.9 mph W7.9 kmh W 8.5 mph13.7 kmh 29.89 in1012.2 mb 0.00 in0.0 mm 0.00 in0.0 mm 0.01 in0.3 mm
10:48 PM 54.7°F12.6°C 50.0°F10.0°C 84% 3.1 mph SW5.0 kmh SW 8.5 mph13.7 kmh 29.89 in1012.2 mb 0.00 in0.0 mm 0.00 in0.0 mm 0.01 in0.3 mm
10:53 PM 54.7°F12.6°C 50.0°F10.0°C 84% 2.0 mph W3.2 kmh W 6.3 mph10.1 kmh 29.89 in1012.2 mb 0.00 in0.0 mm 0.00 in0.0 mm 0.01 in0.3 mm
10:58 PM 54.7°F12.6°C 50.0°F10.0°C 84% 1.6 mph NNW2.6 kmh NNW 4.3 mph6.9 kmh 29.89 in1012.2 mb 0.00 in0.0 mm 0.00 in0.0 mm 0.01 in0.3 mm
11:03 PM 54.7°F12.6°C 50.0°F10.0°C 84% 2.7 mph WSW4.3 kmh WSW 5.4 mph8.7 kmh 29.89 in1012.2 mb 0.00 in0.0 mm 0.00 in0.0 mm 0.01 in0.3 mm
11:08 PM 54.7°F12.6°C 50.0°F10.0°C 84% 3.4 mph W5.5 kmh W 8.5 mph13.7 kmh 29.89 in1012.2 mb 0.00 in0.0 mm 0.00 in0.0 mm 0.01 in0.3 mm
11:13 PM 54.7°F12.6°C 50.0°F10.0°C 84% 0.7 mph W1.1 kmh W 6.3 mph10.1 kmh 29.89 in1012.2 mb 0.00 in0.0 mm 0.00 in0.0 mm 0.01 in0.3 mm
11:18 PM 54.5°F12.5°C 49.5°F9.7°C 83% 3.6 mph SW5.8 kmh SW 6.3 mph10.1 kmh 29.89 in1012.2 mb 0.00 in0.0 mm 0.00 in0.0 mm 0.01 in0.3 mm
11:23 PM 54.3°F12.4°C 49.3°F9.6°C 83% 4.7 mph WSW7.6 kmh WSW 9.6 mph15.4 kmh 29.89 in1012.2 mb 0.00 in0.0 mm 0.00 in0.0 mm 0.01 in0.3 mm
11:28 PM 54.3°F12.4°C 49.3°F9.6°C 83% 2.2 mph NW3.5 kmh NW 8.5 mph13.7 kmh 29.89 in1012.2 mb 0.00 in0.0 mm 0.00 in0.0 mm 0.01 in0.3 mm
11:33 PM 54.3°F12.4°C 49.3°F9.6°C 83% 2.2 mph S3.5 kmh S 8.5 mph13.7 kmh 29.89 in1012.2 mb 0.00 in0.0 mm 0.00 in0.0 mm 0.01 in0.3 mm
11:38 PM 54.1°F12.3°C 48.7°F9.3°C 82% 2.7 mph SSW4.3 kmh SSW 8.5 mph13.7 kmh 29.89 in1012.2 mb 0.00 in0.0 mm 0.00 in0.0 mm 0.01 in0.3 mm
11:43 PM 54.1°F12.3°C 48.7°F9.3°C 82% 3.4 mph W5.5 kmh W 8.5 mph13.7 kmh 29.89 in1012.2 mb 0.00 in0.0 mm 0.00 in0.0 mm 0.01 in0.3 mm
11:48 PM 54.1°F12.3°C 48.4°F9.1°C 81% 2.5 mph NW4.0 kmh NW 7.4 mph11.9 kmh 29.89 in1012.2 mb 0.00 in0.0 mm 0.00 in0.0 mm 0.01 in0.3 mm
11:53 PM 54.1°F12.3°C 48.4°F9.1°C 81% 2.5 mph W4.0 kmh W 6.3 mph10.1 kmh 29.89 in1012.2 mb 0.00 in0.0 mm 0.00 in0.0 mm 0.01 in0.3 mm
11:58 PM 54.1°F12.3°C 48.4°F9.1°C 81% 0.9 mph W1.4 kmh W 4.3 mph6.9 kmh 29.88 in1011.9 mb 0.00 in0.0 mm 0.00 in0.0 mm 0.01 in0.3 mm